Time;durP1;ratioP1;P1;durP2;ratioP2;P2;SDS_P1;SDS_P2;PMS_P1;PMS_P2;Temp;Humidity;BMP_temperature;BMP_pressure;BME280_temperature;BME280_humidity;BME280_pressure;Samples;Min_cycle;Max_cycle;Signal;HPM_P1;HPM_P2
2023/01/29 00:02:23;;;;;;;16.23;9.32;;;;;;;-1.10;94.40;93372.69;5067437;28;20033;-47
2023/01/29 00:04:48;;;;;;;15.77;9.88;;;;;;;-1.21;94.47;93369.84;5061667;28;20033;-48
2023/01/29 00:07:13;;;;;;;13.35;9.07;;;;;;;-1.15;94.46;93376.06;5060989;28;20027;-49
2023/01/29 00:09:39;;;;;;;15.38;9.25;;;;;;;-1.26;95.29;93381.38;5064279;28;20039;-48
2023/01/29 00:12:07;;;;;;;17.52;10.25;;;;;;;-1.23;95.26;93375.00;5063359;28;20028;-48
2023/01/29 00:14:33;;;;;;;16.88;10.00;;;;;;;-1.17;94.92;93386.66;5060017;28;20128;-48
2023/01/29 00:16:59;;;;;;;14.48;9.65;;;;;;;-1.18;95.13;93377.03;5062882;28;20035;-50
2023/01/29 00:19:24;;;;;;;17.45;9.85;;;;;;;-1.17;94.41;93394.03;5063789;28;20056;-48
2023/01/29 00:21:50;;;;;;;16.30;9.77;;;;;;;-1.19;94.76;93389.09;5060862;28;20032;-49
2023/01/29 00:24:15;;;;;;;16.40;10.50;;;;;;;-1.10;94.43;93388.94;5076366;28;20036;-52
2023/01/29 00:26:41;;;;;;;16.50;9.90;;;;;;;-1.09;94.76;93390.44;5067196;28;20471;-50
2023/01/29 00:29:07;;;;;;;14.80;8.90;;;;;;;-1.20;94.04;93384.16;5058818;28;20039;-51
2023/01/29 00:31:32;;;;;;;20.08;11.45;;;;;;;-1.19;94.52;93399.19;5055223;28;20048;-48
2023/01/29 00:33:58;;;;;;;19.58;9.75;;;;;;;-1.14;95.67;93393.84;5062364;28;20032;-49
2023/01/29 00:36:24;;;;;;;16.00;9.45;;;;;;;-1.20;95.55;93397.69;5071534;28;20093;-51
2023/01/29 00:38:57;;;;;;;14.88;9.65;;;;;;;-1.18;94.09;93392.53;5069253;28;20040;-48
2023/01/29 00:46:53;;;;;;;17.50;10.55;;;;;;;-1.19;94.83;93404.63;5061523;28;20051;-48
2023/01/29 00:49:19;;;;;;;19.20;9.32;;;;;;;-1.11;94.66;93394.84;5067491;28;20040;-48
2023/01/29 00:52:22;;;;;;;18.00;9.57;;;;;;;-1.16;95.03;93390.09;5061638;28;20126;-48
2023/01/29 00:54:29;;;;;;;12.48;8.38;;;;;;;-1.31;94.88;93375.88;5059582;28;20036;-47
2023/01/29 00:56:55;;;;;;;16.90;10.57;;;;;;;-1.15;94.82;93391.59;5072225;28;20028;-47
2023/01/29 00:59:20;;;;;;;17.38;10.77;;;;;;;-1.20;94.72;93397.69;5065388;28;20032;-48
2023/01/29 01:04:30;;;;;;;45.42;23.58;;;;;;;-1.04;94.92;93397.88;5064847;28;20513;-48
2023/01/29 01:06:55;;;;;;;18.40;11.68;;;;;;;-1.29;95.08;93389.69;5071098;28;20025;-48
2023/01/29 01:12:04;;;;;;;19.73;14.18;;;;;;;-1.23;95.15;93383.13;5075943;28;20093;-48
2023/01/29 01:14:30;;;;;;;23.25;13.85;;;;;;;-1.18;95.06;93387.88;5074959;28;20037;-47
2023/01/29 01:16:56;;;;;;;18.85;11.57;;;;;;;-1.20;95.12;93393.03;5055830;28;20021;-48
2023/01/29 01:19:21;;;;;;;16.30;9.85;;;;;;;-1.06;94.21;93386.78;5059018;28;20028;-48
2023/01/29 01:21:47;;;;;;;17.17;10.75;;;;;;;-1.12;94.83;93396.81;5058394;28;20487;-49
2023/01/29 01:24:13;;;;;;;16.95;8.27;;;;;;;-1.20;94.60;93390.31;5076438;28;20484;-49
2023/01/29 01:26:38;;;;;;;16.98;10.50;;;;;;;-1.25;95.55;93390.22;5075214;28;20484;-50
2023/01/29 01:29:04;;;;;;;14.35;9.07;;;;;;;-1.23;96.16;93390.50;5053743;28;20515;-47
2023/01/29 01:31:29;;;;;;;16.02;9.85;;;;;;;-1.22;94.62;93381.94;5063644;28;20052;-47
2023/01/29 01:33:55;;;;;;;14.23;8.75;;;;;;;-1.23;94.69;93396.69;5066501;28;20046;-48
2023/01/29 01:36:20;;;;;;;18.67;10.10;;;;;;;-1.19;95.04;93386.38;5070475;28;20031;-48
2023/01/29 01:38:46;;;;;;;16.08;10.25;;;;;;;-1.28;95.73;93396.63;5061574;28;20114;-49
2023/01/29 01:41:13;;;;;;;16.02;10.07;;;;;;;-1.34;95.33;93380.28;5063806;28;20041;-48
2023/01/29 01:43:52;;;;;;;16.15;9.55;;;;;;;-1.18;95.22;93387.88;5062440;28;20043;-49
2023/01/29 01:46:18;;;;;;;12.90;8.60;;;;;;;-1.24;94.78;93383.63;5073322;28;20526;-48
2023/01/29 01:48:46;;;;;;;16.42;8.85;;;;;;;-1.20;94.59;93389.56;5076940;28;20040;-49
2023/01/29 01:51:12;;;;;;;16.08;10.27;;;;;;;-1.21;93.92;93380.69;5064990;28;20033;-48
2023/01/29 01:53:39;;;;;;;14.52;8.25;;;;;;;-1.15;94.17;93381.50;5066842;28;20533;-49
2023/01/29 01:56:10;;;;;;;11.57;7.47;;;;;;;-1.10;93.94;93390.91;5065380;28;20111;-49
2023/01/29 01:58:45;;;;;;;11.82;7.65;;;;;;;-1.12;93.62;93385.22;5063874;28;20123;-48
2023/01/29 02:01:12;;;;;;;13.32;9.07;;;;;;;-1.11;93.78;93389.44;5064850;28;20064;-47
2023/01/29 02:09:35;;;;;;;13.63;9.35;;;;;;;-1.19;95.00;93396.50;5059179;28;20428;-49
2023/01/29 02:12:06;;;;;;;15.93;10.30;;;;;;;-1.21;95.04;93388.09;5070719;28;20032;-50
2023/01/29 02:14:33;;;;;;;12.85;8.95;;;;;;;-1.14;94.79;93390.38;5079572;28;20025;-49
2023/01/29 02:17:00;;;;;;;16.48;11.50;;;;;;;-1.05;94.92;93395.66;5078204;28;20035;-48
2023/01/29 02:19:54;;;;;;;13.95;9.63;;;;;;;-1.17;94.72;93386.66;5087873;28;20127;-51
2023/01/29 02:22:53;;;;;;;13.98;8.10;;;;;;;-1.26;95.07;93389.50;5049434;28;20093;-49
2023/01/29 02:25:28;;;;;;;15.40;9.68;;;;;;;-1.21;94.95;93388.81;5072688;28;20416;-50
2023/01/29 02:28:08;;;;;;;15.18;8.68;;;;;;;-1.17;95.21;93392.06;5064004;28;20033;-48
2023/01/29 02:30:44;;;;;;;12.52;7.88;;;;;;;-1.08;94.98;93389.22;5069815;28;20075;-50
2023/01/29 02:33:22;;;;;;;14.05;8.18;;;;;;;-1.03;94.94;93395.91;5058813;28;20036;-48
2023/01/29 02:36:27;;;;;;;10.95;7.40;;;;;;;-1.08;94.33;93393.88;5063378;28;20038;-48
2023/01/29 02:39:01;;;;;;;13.98;7.55;;;;;;;-1.10;94.62;93396.31;5064620;28;20515;-48
2023/01/29 02:41:59;;;;;;;13.32;8.18;;;;;;;-0.99;94.26;93399.16;5077802;28;20043;-49
2023/01/29 02:44:29;;;;;;;10.98;6.90;;;;;;;-0.89;94.18;93403.25;5068474;28;20094;-48
2023/01/29 02:47:12;;;;;;;11.70;8.05;;;;;;;-0.91;93.06;93403.69;5079612;28;20089;-49
2023/01/29 02:49:49;;;;;;;11.48;7.85;;;;;;;-0.87;93.17;93403.50;5062873;28;20519;-47
2023/01/29 02:52:19;;;;;;;14.55;8.80;;;;;;;-0.91;93.69;93408.41;5070836;28;20077;-47
2023/01/29 02:55:03;;;;;;;14.02;9.57;;;;;;;-1.00;94.64;93403.13;5076309;28;20032;-48
2023/01/29 02:57:33;;;;;;;12.82;7.85;;;;;;;-1.04;94.88;93408.00;5067913;28;20037;-48
2023/01/29 03:00:03;;;;;;;17.63;9.73;;;;;;;-0.87;94.53;93406.22;5065020;28;20025;-48
2023/01/29 03:02:42;;;;;;;13.95;7.72;;;;;;;-0.87;93.68;93403.50;5070113;28;20032;-47
2023/01/29 03:05:11;;;;;;;14.98;8.95;;;;;;;-0.89;94.39;93403.97;5094906;27;20046;-48
2023/01/29 03:07:41;;;;;;;9.40;6.03;;;;;;;-0.83;92.96;93412.91;5069690;28;20024;-48
2023/01/29 03:10:10;;;;;;;12.68;8.82;;;;;;;-0.83;92.73;93402.09;5064674;28;20028;-47
2023/01/29 03:12:37;;;;;;;10.00;6.43;;;;;;;-1.00;93.49;93413.94;5064082;28;20059;-48
2023/01/29 03:15:10;;;;;;;11.57;7.93;;;;;;;-0.82;93.18;93411.69;5069629;28;20028;-47
2023/01/29 03:17:43;;;;;;;12.82;8.60;;;;;;;-0.80;93.20;93411.19;5057565;28;20036;-48
2023/01/29 03:20:14;;;;;;;11.75;7.93;;;;;;;-0.84;93.33;93427.69;5059996;28;20044;-48
2023/01/29 03:22:43;;;;;;;14.18;7.85;;;;;;;-0.90;92.98;93418.00;5068983;28;20028;-48
2023/01/29 03:33:32;;;;;;;10.32;6.88;;;;;;;-0.89;92.59;93419.50;5064233;28;20481;-48
2023/01/29 03:36:36;;;;;;;10.45;7.10;;;;;;;-0.89;92.64;93420.22;5068486;28;20028;-49
2023/01/29 03:39:04;;;;;;;11.55;7.15;;;;;;;-0.87;92.01;93417.06;5048179;28;20462;-50
2023/01/29 03:41:37;;;;;;;10.65;6.60;;;;;;;-0.85;92.39;93420.78;5071219;28;20032;-48
2023/01/29 03:44:12;;;;;;;9.52;6.07;;;;;;;-0.82;91.59;93419.81;5064467;28;20025;-48
2023/01/29 03:46:51;;;;;;;9.38;6.65;;;;;;;-1.05;92.59;93404.53;5063880;28;20033;-50
2023/01/29 03:49:49;;;;;;;11.45;7.13;;;;;;;-1.03;92.74;93426.47;5064897;28;20036;-48
2023/01/29 03:52:18;;;;;;;10.60;7.38;;;;;;;-1.01;93.22;93426.75;5051452;28;20127;-49
2023/01/29 03:54:56;;;;;;;9.18;6.82;;;;;;;-1.07;93.21;93425.19;5068601;28;20043;-48
2023/01/29 03:57:36;;;;;;;10.32;6.38;;;;;;;-1.13;93.41;93425.13;5069685;28;20028;-48
2023/01/29 04:00:19;;;;;;;10.75;6.65;;;;;;;-1.13;93.94;93422.44;5071790;28;20437;-50
2023/01/29 04:03:03;;;;;;;9.20;6.05;;;;;;;-1.18;93.86;93414.22;5056098;28;20029;-49
2023/01/29 04:05:33;;;;;;;11.07;6.07;;;;;;;-1.15;93.64;93421.41;5074368;28;20028;-50
2023/01/29 04:08:04;;;;;;;10.35;6.18;;;;;;;-1.09;93.52;93422.22;5092098;28;20450;-48
2023/01/29 04:10:31;;;;;;;8.38;6.18;;;;;;;-0.98;92.89;93430.47;5075681;28;20411;-48
2023/01/29 04:13:03;;;;;;;8.27;6.03;;;;;;;-0.95;91.60;93421.38;5069685;28;20454;-49
2023/01/29 04:15:30;;;;;;;10.40;5.88;;;;;;;-1.01;91.08;93413.19;5051513;28;20505;-49
2023/01/29 04:17:56;;;;;;;9.13;6.28;;;;;;;-1.11;92.72;93430.06;5054910;28;20050;-49
2023/01/29 04:20:22;;;;;;;8.80;6.25;;;;;;;-1.02;92.94;93433.38;5058846;28;20082;-48
2023/01/29 04:22:50;;;;;;;10.60;6.38;;;;;;;-0.99;93.15;93439.81;5061455;28;20080;-48
2023/01/29 04:25:25;;;;;;;9.45;6.45;;;;;;;-0.97;93.40;93437.38;5067866;28;20028;-48
2023/01/29 04:27:56;;;;;;;11.07;6.13;;;;;;;-0.86;93.36;93437.50;5057781;28;20508;-48
2023/01/29 04:30:32;;;;;;;9.65;6.68;;;;;;;-0.92;92.92;93436.69;5065046;28;20028;-48
2023/01/29 04:33:16;;;;;;;10.73;7.28;;;;;;;-1.01;92.47;93439.53;5065934;28;20097;-48
2023/01/29 04:35:58;;;;;;;8.30;6.25;;;;;;;-0.95;92.58;93445.75;5059047;28;20052;-47
2023/01/29 04:38:33;;;;;;;12.10;7.38;;;;;;;-0.97;92.52;93445.50;5065580;28;20032;-47
2023/01/29 04:41:08;;;;;;;10.50;7.78;;;;;;;-0.98;92.91;93444.78;5063166;28;20064;-49
2023/01/29 04:43:48;;;;;;;7.00;6.15;;;;;;;-1.05;92.55;93442.47;5064199;28;20039;-48
2023/01/29 04:46:34;;;;;;;8.15;5.95;;;;;;;-0.97;92.53;93453.63;5057245;28;20028;-47
2023/01/29 04:49:14;;;;;;;11.23;7.10;;;;;;;-1.10;92.38;93448.56;5062743;28;20465;-48
2023/01/29 04:51:49;;;;;;;14.68;10.00;;;;;;;-0.97;92.73;93448.97;5069934;28;20020;-48
2023/01/29 04:54:36;;;;;;;8.57;6.22;;;;;;;-1.14;93.48;93449.97;5062838;28;20747;-49
2023/01/29 04:57:10;;;;;;;9.68;6.60;;;;;;;-1.08;92.55;93446.13;5063898;28;20033;-48
2023/01/29 04:59:41;;;;;;;6.90;4.82;;;;;;;-1.07;92.48;93452.28;5077473;28;20064;-48
2023/01/29 05:02:08;;;;;;;9.02;6.03;;;;;;;-1.16;93.04;93442.31;5064729;28;20025;-49
2023/01/29 05:04:34;;;;;;;6.88;4.97;;;;;;;-1.02;92.38;93457.03;5060577;28;20032;-48
2023/01/29 05:07:03;;;;;;;8.90;6.45;;;;;;;-1.07;92.48;93457.69;5055165;28;20021;-49
2023/01/29 05:09:29;;;;;;;9.27;6.05;;;;;;;-0.98;92.20;93463.00;5095952;27;20487;-48
2023/01/29 05:11:55;;;;;;;6.40;5.10;;;;;;;-0.92;91.37;93463.81;5055594;28;20033;-48
2023/01/29 05:14:21;;;;;;;9.40;5.95;;;;;;;-0.96;91.70;93460.56;5060550;28;20128;-48
2023/01/29 05:16:51;;;;;;;7.80;5.45;;;;;;;-1.16;92.09;93455.13;5054630;28;20025;-48
2023/01/29 05:19:16;;;;;;;7.30;5.07;;;;;;;-1.12;92.84;93461.06;5055471;28;20028;-49
2023/01/29 05:21:44;;;;;;;9.35;5.93;;;;;;;-1.05;92.32;93471.50;5059328;28;20738;-48
2023/01/29 05:24:10;;;;;;;10.15;5.80;;;;;;;-1.13;92.82;93465.00;5067392;28;20021;-48
2023/01/29 05:29:20;;;;;;;14.55;6.88;;;;;;;-0.98;92.20;93471.13;5062967;28;20093;-47
2023/01/29 05:31:46;;;;;;;8.18;5.57;;;;;;;-1.04;92.61;93462.19;5061611;28;20470;-48
2023/01/29 05:34:11;;;;;;;10.52;7.40;;;;;;;-0.99;92.97;93475.78;5065257;28;20118;-48
2023/01/29 05:36:37;;;;;;;9.63;6.15;;;;;;;-0.77;91.32;93481.47;5061941;28;20032;-48
2023/01/29 05:39:02;;;;;;;10.77;6.97;;;;;;;-0.87;91.84;93482.09;5063706;28;20115;-48
2023/01/29 05:41:28;;;;;;;8.07;5.57;;;;;;;-0.99;91.64;93475.78;5058844;28;20035;-48
2023/01/29 05:43:53;;;;;;;8.82;6.93;;;;;;;-1.00;92.24;93482.44;5051355;28;20412;-47
2023/01/29 05:46:19;;;;;;;9.35;5.97;;;;;;;-1.03;92.17;93475.25;5058389;28;20497;-48
2023/01/29 05:48:44;;;;;;;10.35;7.00;;;;;;;-1.11;93.15;93476.88;5056069;28;20040;-48
2023/01/29 05:51:10;;;;;;;12.25;7.07;;;;;;;-1.23;92.59;93467.09;5066558;28;20040;-47
2023/01/29 05:53:35;;;;;;;12.48;7.82;;;;;;;-0.95;93.25;93476.31;5055481;28;20020;-48
2023/01/29 05:56:01;;;;;;;9.82;6.85;;;;;;;-0.92;93.13;93483.53;5057493;28;20032;-48
2023/01/29 05:58:27;;;;;;;8.65;6.40;;;;;;;-0.96;92.57;93491.09;5062296;28;20742;-48
2023/01/29 06:00:52;;;;;;;14.25;7.28;;;;;;;-0.87;92.62;93490.94;5062682;28;20111;-47
2023/01/29 06:03:18;;;;;;;9.52;7.25;;;;;;;-0.83;92.38;93498.91;5069012;28;20044;-48
2023/01/29 06:05:43;;;;;;;19.70;10.45;;;;;;;-0.86;92.22;93497.88;5063411;28;20029;-47
2023/01/29 06:08:09;;;;;;;8.88;6.60;;;;;;;-0.81;91.92;93502.63;5061531;28;20033;-47
2023/01/29 06:10:34;;;;;;;17.27;7.53;;;;;;;-0.86;91.66;93505.25;5059801;28;20052;-48
2023/01/29 06:13:00;;;;;;;23.10;13.07;;;;;;;-0.93;91.86;93505.66;5061453;28;20029;-48
2023/01/29 06:15:25;;;;;;;23.33;13.85;;;;;;;-0.95;92.32;93497.25;5063521;28;20025;-48
2023/01/29 06:17:55;;;;;;;28.35;17.10;;;;;;;-0.95;92.36;93513.50;5064665;28;20090;-49
2023/01/29 06:20:20;;;;;;;28.27;17.65;;;;;;;-0.86;92.62;93507.97;5060243;28;20032;-48
2023/01/29 06:22:46;;;;;;;14.68;11.05;;;;;;;-0.98;92.36;93514.47;5066246;28;20027;-48
2023/01/29 06:25:11;;;;;;;17.13;11.18;;;;;;;-1.01;92.64;93518.13;5066249;28;20063;-47
2023/01/29 06:27:37;;;;;;;17.15;9.05;;;;;;;-0.85;92.09;93523.03;5059791;28;20036;-48
2023/01/29 06:30:04;;;;;;;13.23;9.05;;;;;;;-0.91;92.46;93524.91;5064001;28;20040;-48
2023/01/29 06:32:29;;;;;;;17.05;10.68;;;;;;;-0.86;92.72;93527.69;5068837;28;20516;-47
2023/01/29 06:34:55;;;;;;;16.42;10.63;;;;;;;-0.93;93.02;93528.09;5077950;28;20031;-47
2023/01/29 06:37:20;;;;;;;16.80;10.15;;;;;;;-1.10;93.93;93532.53;5072590;28;20028;-47
2023/01/29 06:39:45;;;;;;;19.17;10.77;;;;;;;-0.92;93.25;93534.25;5056068;28;20029;-47
2023/01/29 06:42:11;;;;;;;14.18;9.75;;;;;;;-0.96;93.54;93536.44;5075808;28;20032;-47
2023/01/29 06:44:36;;;;;;;13.07;8.15;;;;;;;-0.84;93.04;93538.81;5072864;28;20033;-47
2023/01/29 06:47:02;;;;;;;37.38;19.27;;;;;;;-0.92;92.79;93536.97;5061877;28;20115;-47
2023/01/29 06:49:27;;;;;;;27.25;16.58;;;;;;;-0.79;92.91;93543.56;5078802;28;20035;-47
2023/01/29 06:51:53;;;;;;;63.33;30.42;;;;;;;-0.83;92.63;93547.69;5071399;28;20073;-50
2023/01/29 06:54:18;;;;;;;43.78;26.77;;;;;;;-0.90;92.77;93542.66;5071864;28;20033;-48
2023/01/29 06:56:43;;;;;;;37.17;21.60;;;;;;;-0.85;92.09;93555.53;5063208;28;20021;-47
2023/01/29 06:59:11;;;;;;;13.35;9.13;;;;;;;-0.89;92.05;93544.16;5068061;28;20086;-47
2023/01/29 07:01:40;;;;;;;20.42;13.82;;;;;;;-0.75;92.80;93556.91;5061828;28;20032;-48
2023/01/29 07:04:05;;;;;;;;;;;;;;;-0.74;92.58;93555.69;5062958;28;20029;-48
2023/01/29 07:06:31;;;;;;;40.25;21.60;;;;;;;-0.78;92.08;93555.16;5070349;28;19935;-48
2023/01/29 07:08:56;;;;;;;26.33;17.65;;;;;;;-0.64;91.96;93562.47;5063176;28;20062;-47
2023/01/29 07:11:22;;;;;;;26.30;18.15;;;;;;;-0.63;91.75;93557.81;5057528;28;20071;-49
2023/01/29 07:13:47;;;;;;;31.63;19.40;;;;;;;-0.68;92.13;93559.22;5060536;28;20470;-48
2023/01/29 07:16:12;;;;;;;17.40;13.10;;;;;;;-0.62;91.68;93560.03;5060840;28;20037;-47
2023/01/29 07:18:38;;;;;;;19.05;12.00;;;;;;;-0.51;90.89;93568.31;5058683;28;20089;-45
2023/01/29 07:21:05;;;;;;;14.57;10.80;;;;;;;-0.52;91.55;93569.50;5058002;28;20028;-47
2023/01/29 07:23:31;;;;;;;15.93;11.40;;;;;;;-0.76;91.36;93556.16;5056419;28;20488;-47
2023/01/29 07:26:01;;;;;;;14.88;9.70;;;;;;;-0.54;90.84;93571.22;5057326;28;20036;-47
2023/01/29 07:28:26;;;;;;;22.35;12.73;;;;;;;-0.72;91.43;93568.78;5060920;28;20062;-47
2023/01/29 07:30:55;;;;;;;26.30;13.52;;;;;;;-0.67;91.28;93576.25;5059331;28;20445;-46
2023/01/29 07:33:21;;;;;;;13.50;8.75;;;;;;;-0.69;92.03;93573.97;5060236;28;20035;-46
2023/01/29 07:35:46;;;;;;;17.17;10.20;;;;;;;-0.53;90.04;93578.13;5058785;28;20029;-47
2023/01/29 07:38:12;;;;;;;15.13;10.73;;;;;;;-0.58;90.73;93579.53;5055849;28;20025;-47
2023/01/29 07:40:37;;;;;;;10.70;8.00;;;;;;;-0.61;90.47;93579.75;5058503;28;20039;-48
2023/01/29 07:43:05;;;;;;;17.90;11.32;;;;;;;-0.40;90.60;93582.00;5056972;28;20044;-47
2023/01/29 07:45:33;;;;;;;20.83;13.20;;;;;;;-0.44;90.64;93578.75;5058106;28;20031;-47
2023/01/29 07:47:58;;;;;;;21.05;12.88;;;;;;;-0.34;90.47;93585.53;5063338;28;20024;-49
2023/01/29 07:50:24;;;;;;;23.13;13.65;;;;;;;-0.43;89.53;93582.19;5054901;28;20036;-48
2023/01/29 07:52:50;;;;;;;21.35;12.60;;;;;;;-0.57;89.84;93586.47;5061115;28;20036;-48
2023/01/29 07:55:18;;;;;;;27.58;16.58;;;;;;;-0.35;90.83;93586.75;5058106;28;20063;-48
2023/01/29 07:57:43;;;;;;;20.05;12.05;;;;;;;-0.35;89.30;93586.00;5062051;28;20073;-47
2023/01/29 08:00:10;;;;;;;14.30;10.75;;;;;;;-0.16;89.96;93587.97;5059599;28;20033;-48
2023/01/29 08:02:36;;;;;;;15.82;10.52;;;;;;;-0.01;87.77;93598.72;5061159;28;20038;-48
2023/01/29 08:05:02;;;;;;;24.42;16.20;;;;;;;-0.15;88.25;93600.28;5059023;28;20028;-48
2023/01/29 08:07:27;;;;;;;19.38;12.32;;;;;;;-0.26;89.19;93611.00;5063729;28;20144;-48
2023/01/29 08:09:52;;;;;;;18.15;10.80;;;;;;;-0.23;89.46;93612.03;5057214;28;20405;-47
2023/01/29 08:12:18;;;;;;;15.25;11.10;;;;;;;-0.07;89.51;93606.81;5060890;28;20521;-48
2023/01/29 08:14:44;;;;;;;16.25;11.40;;;;;;;0.13;88.57;93608.75;5059150;28;20058;-48
2023/01/29 08:17:11;;;;;;;14.07;9.52;;;;;;;0.20;87.01;93610.28;5062884;28;20024;-48
2023/01/29 08:19:36;;;;;;;36.33;20.60;;;;;;;0.17;86.70;93611.25;5061849;28;20464;-48
2023/01/29 08:22:03;;;;;;;28.33;17.27;;;;;;;-0.20;88.61;93613.81;5057184;28;20040;-47
2023/01/29 08:24:28;;;;;;;31.52;22.77;;;;;;;0.15;88.44;93619.13;5062821;28;20487;-47
2023/01/29 08:26:53;;;;;;;14.20;9.70;;;;;;;0.11;87.57;93619.31;5058762;28;20083;-49
2023/01/29 08:29:19;;;;;;;18.00;9.10;;;;;;;0.27;86.05;93621.50;5055998;28;20039;-48
2023/01/29 08:31:45;;;;;;;12.88;8.82;;;;;;;0.26;86.21;93619.25;5060730;28;20046;-49
2023/01/29 08:34:10;;;;;;;13.40;8.23;;;;;;;0.26;86.57;93621.97;5061370;28;20484;-49
2023/01/29 08:36:36;;;;;;;14.48;10.98;;;;;;;-0.16;88.62;93620.53;5056317;28;20036;-48
2023/01/29 08:39:01;;;;;;;15.52;10.10;;;;;;;0.11;89.11;93624.03;5058489;28;20024;-49
2023/01/29 08:41:27;;;;;;;17.25;12.20;;;;;;;0.15;88.71;93628.03;5056837;28;20028;-49
2023/01/29 08:43:52;;;;;;;20.15;11.18;;;;;;;0.03;88.63;93626.41;5060505;28;20033;-51
2023/01/29 08:46:18;;;;;;;13.52;9.27;;;;;;;-0.07;89.34;93623.09;5057505;28;20686;-49
2023/01/29 08:48:43;;;;;;;12.77;9.55;;;;;;;0.09;88.04;93634.63;5058646;28;20029;-48
2023/01/29 08:51:09;;;;;;;17.17;11.88;;;;;;;0.17;88.05;93635.69;5057874;28;20186;-49
2023/01/29 08:53:34;;;;;;;16.77;10.55;;;;;;;-0.02;88.15;93638.69;5060752;28;20032;-48
2023/01/29 08:56:00;;;;;;;17.65;12.20;;;;;;;0.20;87.73;93640.16;5065510;28;20082;-48
2023/01/29 08:58:26;;;;;;;22.52;11.88;;;;;;;0.18;88.20;93643.34;5069231;28;20095;-48
2023/01/29 09:00:51;;;;;;;15.07;10.25;;;;;;;0.10;88.42;93646.97;5065937;28;20028;-48
2023/01/29 09:03:17;;;;;;;37.65;21.55;;;;;;;0.20;87.48;93648.28;5060860;28;20025;-48
2023/01/29 09:05:42;;;;;;;12.60;8.23;;;;;;;0.21;87.78;93652.53;5069720;28;20040;-48
2023/01/29 09:08:08;;;;;;;9.18;6.90;;;;;;;0.20;87.08;93651.75;5056566;28;20021;-49
2023/01/29 09:10:34;;;;;;;10.65;7.55;;;;;;;0.23;87.54;93645.38;5059475;28;20029;-47
2023/01/29 09:13:00;;;;;;;15.35;11.15;;;;;;;0.45;86.38;93653.03;5064562;28;20503;-47
2023/01/29 09:15:25;;;;;;;12.52;9.55;;;;;;;0.66;86.01;93644.34;5068661;28;20062;-48
2023/01/29 09:17:51;;;;;;;14.20;10.63;;;;;;;0.65;85.90;93642.13;5068766;28;20063;-48
2023/01/29 09:20:18;;;;;;;8.38;6.82;;;;;;;0.77;86.04;93640.97;5059859;28;20037;-48
2023/01/29 09:22:44;;;;;;;13.48;9.20;;;;;;;0.99;85.39;93648.56;5072269;28;20495;-48
2023/01/29 09:25:09;;;;;;;10.13;7.50;;;;;;;0.69;85.33;93646.09;5073490;28;20039;-48
2023/01/29 09:27:35;;;;;;;10.10;7.65;;;;;;;0.74;85.00;93645.41;5078989;28;20028;-48
2023/01/29 09:30:00;;;;;;;10.02;8.38;;;;;;;0.74;84.91;93639.22;5071258;28;20524;-48
2023/01/29 09:32:29;;;;;;;11.90;9.52;;;;;;;0.69;84.93;93635.22;5077236;28;20079;-48
2023/01/29 09:34:55;;;;;;;12.85;8.32;;;;;;;0.73;85.18;93635.78;5067912;28;20028;-48
2023/01/29 09:37:22;;;;;;;8.23;6.03;;;;;;;0.63;84.85;93641.81;5073507;28;20044;-47
2023/01/29 09:39:48;;;;;;;6.45;5.45;;;;;;;0.77;84.61;93640.97;5051781;28;20028;-49
2023/01/29 09:42:27;;;;;;;9.27;6.88;;;;;;;0.83;84.47;93638.28;5054060;28;20036;-47
2023/01/29 09:44:52;;;;;;;;;;;;;;;0.81;84.05;93633.34;5055680;28;20036;-48
2023/01/29 09:47:19;;;;;;;9.82;6.40;;;;;;;0.86;83.59;93631.91;5056472;28;19923;-48
2023/01/29 09:50:09;;;;;;;28.45;7.40;;;;;;;0.88;84.24;93632.19;5071437;28;20078;-48
2023/01/29 09:52:39;;;;;;;9.90;7.60;;;;;;;0.97;84.21;93629.28;5057382;28;20027;-47
2023/01/29 09:55:24;;;;;;;9.02;7.38;;;;;;;0.88;84.25;93632.94;5071212;28;20031;-48
2023/01/29 09:57:54;;;;;;;10.07;7.60;;;;;;;0.84;83.11;93629.69;5055495;28;20039;-48
2023/01/29 10:00:32;;;;;;;9.63;6.85;;;;;;;0.95;84.79;93637.19;5065002;28;20039;-49
2023/01/29 10:03:00;;;;;;;11.07;7.68;;;;;;;1.15;83.10;93629.66;5062886;28;20786;-47
2023/01/29 10:05:28;;;;;;;10.00;8.47;;;;;;;0.99;83.62;93626.81;5066676;28;20059;-47
2023/01/29 10:08:25;;;;;;;12.32;8.65;;;;;;;1.17;83.11;93619.03;5070468;28;20481;-46
2023/01/29 10:11:10;;;;;;;13.02;6.60;;;;;;;1.12;81.93;93621.75;5072248;28;20534;-48
2023/01/29 10:13:38;;;;;;;6.25;5.55;;;;;;;1.20;82.63;93617.34;5060662;28;20041;-48
2023/01/29 10:16:25;;;;;;;9.55;6.85;;;;;;;1.14;83.00;93611.13;5069829;28;20504;-47
2023/01/29 10:19:09;;;;;;;10.93;7.90;;;;;;;1.09;83.52;93617.25;5068022;28;20020;-48
2023/01/29 10:22:03;;;;;;;12.90;9.52;;;;;;;1.22;82.61;93610.19;5063254;28;20032;-49
2023/01/29 10:24:37;;;;;;;9.55;6.88;;;;;;;1.05;82.23;93603.13;5070677;28;20059;-47
2023/01/29 10:27:11;;;;;;;27.02;13.13;;;;;;;1.04;82.71;93613.25;5071857;28;20032;-47
2023/01/29 10:29:38;;;;;;;13.80;10.57;;;;;;;0.95;83.62;93605.31;5076157;28;20036;-47
2023/01/29 10:32:04;;;;;;;18.38;11.15;;;;;;;0.84;83.43;93609.91;5066231;28;20053;-47
2023/01/29 10:34:30;;;;;;;19.20;12.15;;;;;;;0.60;84.03;93610.94;5065034;28;20035;-48
2023/01/29 10:36:58;;;;;;;20.42;13.57;;;;;;;0.66;85.46;93605.56;5067579;28;20082;-47
2023/01/29 10:39:25;;;;;;;18.27;12.98;;;;;;;0.63;85.44;93606.50;5066378;28;20426;-47
2023/01/29 10:42:12;;;;;;;18.95;13.02;;;;;;;0.57;86.12;93605.72;5071267;28;20028;-46
2023/01/29 10:45:27;;;;;;;17.83;11.82;;;;;;;0.33;86.93;93605.25;5071010;28;20028;-48
2023/01/29 10:48:07;;;;;;;24.38;13.63;;;;;;;0.30;88.43;93606.97;5043039;28;20105;-47
2023/01/29 10:50:47;;;;;;;20.95;13.63;;;;;;;0.56;86.64;93596.09;5071211;28;20024;-47
2023/01/29 10:53:32;;;;;;;22.80;14.43;;;;;;;0.47;87.00;93602.44;5056424;28;20036;-47
2023/01/29 10:56:00;;;;;;;15.85;11.10;;;;;;;0.47;86.71;93601.69;5060853;28;20517;-47
2023/01/29 10:58:33;;;;;;;18.15;11.88;;;;;;;0.65;86.03;93596.66;5059940;28;20731;-47
2023/01/29 11:00:59;;;;;;;15.13;11.95;;;;;;;0.57;87.34;93592.13;5055326;28;20508;-48
2023/01/29 11:03:30;;;;;;;18.38;12.00;;;;;;;0.60;85.74;93594.66;5067577;28;20032;-47
2023/01/29 11:06:03;;;;;;;16.30;11.50;;;;;;;0.34;87.30;93583.06;5064821;28;20420;-48
2023/01/29 11:08:41;;;;;;;20.38;13.13;;;;;;;0.66;87.30;93586.53;5063975;28;20033;-47
2023/01/29 11:11:17;;;;;;;17.85;11.68;;;;;;;0.34;87.74;93585.03;5062367;28;20024;-47
2023/01/29 11:13:59;;;;;;;18.27;12.68;;;;;;;0.62;87.78;93589.47;5063109;28;20036;-47
2023/01/29 11:16:26;;;;;;;21.05;14.30;;;;;;;0.65;86.92;93585.78;5066276;28;20036;-47
2023/01/29 11:18:56;;;;;;;24.52;16.40;;;;;;;0.67;87.10;93580.63;5061567;28;20100;-49
2023/01/29 11:21:23;;;;;;;23.15;14.85;;;;;;;0.70;86.50;93576.94;5065159;28;20848;-47
2023/01/29 11:23:49;;;;;;;23.13;16.48;;;;;;;0.56;87.00;93577.06;5069475;28;20032;-47
2023/01/29 11:26:21;;;;;;;24.38;14.98;;;;;;;0.51;87.27;93550.59;5065952;28;20024;-47
2023/01/29 11:28:50;;;;;;;22.08;14.50;;;;;;;0.52;87.62;93566.41;5067932;28;20028;-48
2023/01/29 11:31:15;;;;;;;;;;;;;;;0.74;87.02;93565.84;5073484;28;20079;-48
2023/01/29 11:33:41;;;;;;;21.83;14.10;;;;;;;0.70;85.94;93565.31;5059947;28;20304;-47
2023/01/29 11:36:27;;;;;;;20.58;13.00;;;;;;;0.69;86.64;93563.84;5074245;28;20550;-47
2023/01/29 11:39:22;;;;;;;21.45;13.45;;;;;;;0.81;86.18;93559.22;5070699;28;20451;-48
2023/01/29 11:41:59;;;;;;;18.38;12.50;;;;;;;0.82;86.39;93552.56;5055291;28;20052;-48
2023/01/29 11:44:32;;;;;;;21.10;13.75;;;;;;;0.85;86.09;93552.34;5059562;28;20791;-47
2023/01/29 11:47:10;;;;;;;17.33;12.70;;;;;;;1.06;84.69;93544.84;5062679;28;20032;-48
2023/01/29 11:49:36;;;;;;;21.77;14.63;;;;;;;1.07;83.60;93538.91;5072072;28;20775;-47
2023/01/29 11:52:04;;;;;;;21.73;14.23;;;;;;;1.08;84.39;93543.13;5064851;28;20032;-48
2023/01/29 11:54:56;;;;;;;28.27;16.63;;;;;;;1.24;83.65;93537.03;5059566;28;20077;-48
2023/01/29 11:57:33;;;;;;;22.25;14.88;;;;;;;1.26;83.43;93534.56;5040327;28;20048;-48
2023/01/29 12:00:03;;;;;;;22.38;15.00;;;;;;;1.23;83.47;93532.06;5084145;28;20064;-46
2023/01/29 12:02:48;;;;;;;24.75;16.45;;;;;;;1.05;84.20;93548.78;5079136;28;20037;-47
2023/01/29 12:05:16;;;;;;;22.10;14.85;;;;;;;1.17;83.83;93544.91;5064942;28;20038;-48
2023/01/29 12:07:44;;;;;;;21.73;13.40;;;;;;;0.99;84.95;93540.59;5063520;28;20408;-47
2023/01/29 12:10:36;;;;;;;23.55;16.35;;;;;;;0.90;85.27;93546.22;5069530;28;20443;-48